createdAt,value
2023-01-03T00:00:34.144Z,77.37
2023-01-03T00:01:37.904Z,77.16
2023-01-03T00:02:41.142Z,76.99
2023-01-03T00:03:43.417Z,77.19
2023-01-03T00:04:49.667Z,76.80
2023-01-03T00:05:52.476Z,76.84
2023-01-03T00:06:57.077Z,76.89
2023-01-03T00:07:59.593Z,76.61
2023-01-03T00:09:03.983Z,76.95
2023-01-03T00:10:09.169Z,77.02
2023-01-03T00:11:12.465Z,76.74
2023-01-03T00:12:30.897Z,77.00
2023-01-03T00:13:34.462Z,76.82
2023-01-03T00:14:38.079Z,76.87
2023-01-03T00:15:41.097Z,77.05
2023-01-03T00:16:43.251Z,76.91
2023-01-03T00:17:46.394Z,76.87
2023-01-03T00:18:48.404Z,76.96
2023-01-03T00:19:51.513Z,77.17
2023-01-03T00:20:53.572Z,76.97
2023-01-03T00:21:58.678Z,77.07
2023-01-03T00:23:02.335Z,77.07
2023-01-03T00:24:05.422Z,77.30
2023-01-03T00:25:09.063Z,77.10
2023-01-03T00:26:11.446Z,77.13
2023-01-03T00:27:15.446Z,77.28
2023-01-03T00:28:17.496Z,77.19
2023-01-03T00:29:20.636Z,77.13
2023-01-03T00:30:22.836Z,77.27
2023-01-03T00:31:26.186Z,77.18
2023-01-03T00:32:28.287Z,77.25
2023-01-03T00:33:32.552Z,77.29
2023-01-03T00:34:36.375Z,77.10
2023-01-03T00:35:38.500Z,77.30
2023-01-03T00:36:42.254Z,77.28
2023-01-03T00:37:46.604Z,77.24
2023-01-03T00:38:48.887Z,77.36
2023-01-03T00:39:51.908Z,77.23
2023-01-03T00:40:53.971Z,77.10
2023-01-03T00:41:57.861Z,77.05
2023-01-03T00:43:18.309Z,76.86
2023-01-03T00:44:21.807Z,76.76
2023-01-03T00:45:25.738Z,77.05
2023-01-03T00:46:29.560Z,77.07
2023-01-03T00:47:31.635Z,77.17
2023-01-03T00:48:35.186Z,76.92
2023-01-03T00:49:38.258Z,77.14
2023-01-03T00:50:40.311Z,76.89
2023-01-03T00:51:43.764Z,76.97
2023-01-03T00:52:48.187Z,76.95
2023-01-03T00:53:53.502Z,76.93
2023-01-03T00:54:56.577Z,76.88
2023-01-03T00:56:02.743Z,76.97
2023-01-03T00:57:05.879Z,77.00
2023-01-03T00:58:07.899Z,76.97
2023-01-03T00:59:12.389Z,77.03
2023-01-03T01:00:15.122Z,76.92
2023-01-03T01:01:20.189Z,76.79
2023-01-03T01:02:23.516Z,76.98
2023-01-03T01:03:26.854Z,76.78
2023-01-03T01:04:32.784Z,76.95
2023-01-03T01:05:34.958Z,76.99
2023-01-03T01:06:41.112Z,76.89
2023-01-03T01:07:43.225Z,76.96
2023-01-03T01:08:49.527Z,76.77
2023-01-03T01:09:51.645Z,76.97
2023-01-03T01:11:03.901Z,76.83
2023-01-03T01:12:07.386Z,76.90
2023-01-03T01:13:10.532Z,76.94
2023-01-03T01:14:21.867Z,77.17
2023-01-03T01:15:24.977Z,76.98
2023-01-03T01:16:29.221Z,77.14
2023-01-03T01:17:32.363Z,77.25
2023-01-03T01:18:35.148Z,77.07
2023-01-03T01:19:40.064Z,77.25
2023-01-03T01:20:42.127Z,77.18
2023-01-03T01:21:45.514Z,77.23
2023-01-03T01:22:47.599Z,77.17
2023-01-03T01:23:53.203Z,77.18
2023-01-03T01:24:56.271Z,77.34
2023-01-03T01:26:00.384Z,77.40
2023-01-03T01:27:03.972Z,77.22
2023-01-03T01:28:06.122Z,77.43
2023-01-03T01:29:10.671Z,77.48
2023-01-03T01:30:13.605Z,77.44
2023-01-03T01:31:19.684Z,77.42
2023-01-03T01:32:21.851Z,77.48
2023-01-03T01:33:24.914Z,77.43
2023-01-03T01:34:28.090Z,77.26
2023-01-03T01:35:30.375Z,77.59
2023-01-03T01:36:37.491Z,77.54
2023-01-03T01:37:39.543Z,77.48
2023-01-03T01:38:42.566Z,77.56
2023-01-03T01:39:46.970Z,77.56
2023-01-03T01:40:49.042Z,77.53
2023-01-03T01:42:18.303Z,77.58
2023-01-03T01:43:41.133Z,77.50
2023-01-03T01:44:53.033Z,77.73
2023-01-03T01:45:55.197Z,77.76
2023-01-03T01:46:58.469Z,77.56
2023-01-03T01:48:05.924Z,77.56
2023-01-03T01:49:16.301Z,77.79
2023-01-03T01:50:23.650Z,77.69
2023-01-03T01:51:29.634Z,78.03
2023-01-03T01:52:35.319Z,77.80
2023-01-03T01:53:42.180Z,77.82
2023-01-03T01:54:46.169Z,77.83
2023-01-03T01:55:53.015Z,77.87
2023-01-03T01:56:55.556Z,77.84
2023-01-03T01:57:58.897Z,77.97
2023-01-03T01:59:01.584Z,78.10
2023-01-03T02:00:06.120Z,78.10
2023-01-03T02:01:12.023Z,78.15
2023-01-03T02:02:20.409Z,78.27
2023-01-03T02:03:23.746Z,78.15
2023-01-03T02:04:30.915Z,78.37
2023-01-03T02:05:35.742Z,78.53
2023-01-03T02:06:40.063Z,78.36
2023-01-03T02:07:43.093Z,78.51
2023-01-03T02:08:46.188Z,78.45
2023-01-03T02:09:52.506Z,78.73
2023-01-03T02:11:14.087Z,78.84
2023-01-03T02:12:56.968Z,79.35
2023-01-03T02:14:08.779Z,79.08
2023-01-03T02:15:19.331Z,79.38
2023-01-03T02:16:32.479Z,79.31
2023-01-03T02:17:44.595Z,79.81
2023-01-03T02:18:54.223Z,79.63
2023-01-03T02:20:21.513Z,79.81
2023-01-03T02:21:53.761Z,79.90
2023-01-03T02:23:29.291Z,79.83
2023-01-03T02:25:04.523Z,79.94
2023-01-03T02:26:32.448Z,80.25
2023-01-03T02:28:03.453Z,80.27
2023-01-03T02:29:21.108Z,80.42
2023-01-03T02:30:33.040Z,80.32
2023-01-03T02:31:44.909Z,80.27
2023-01-03T02:32:54.478Z,80.93
2023-01-03T02:34:04.833Z,80.75
2023-01-03T02:35:14.112Z,80.92
2023-01-03T02:36:24.725Z,80.82
2023-01-03T02:37:35.461Z,80.77
2023-01-03T02:38:46.723Z,81.07
2023-01-03T02:39:57.099Z,81.04
2023-01-03T02:41:06.967Z,81.01
2023-01-03T02:42:33.203Z,81.08
2023-01-03T02:43:43.053Z,81.08
2023-01-03T02:44:52.014Z,80.96
2023-01-03T02:46:04.113Z,81.02
2023-01-03T02:47:09.398Z,81.16
2023-01-03T02:48:17.884Z,81.19
2023-01-03T02:49:25.029Z,81.62
2023-01-03T02:50:32.474Z,81.67
2023-01-03T02:51:38.617Z,81.38
2023-01-03T02:52:43.005Z,81.61
2023-01-03T02:53:48.719Z,81.52
2023-01-03T02:54:57.658Z,81.41
2023-01-03T02:56:10.809Z,81.69
2023-01-03T02:57:17.271Z,81.79
2023-01-03T02:58:23.375Z,81.56
2023-01-03T02:59:34.291Z,81.67
2023-01-03T03:00:41.644Z,81.68
2023-01-03T03:01:50.161Z,81.94
2023-01-03T03:02:59.072Z,81.98
2023-01-03T03:04:06.869Z,82.02
2023-01-03T03:05:15.276Z,81.70
2023-01-03T03:06:26.234Z,81.71
2023-01-03T03:07:32.048Z,81.80
2023-01-03T03:08:35.244Z,82.01
2023-01-03T03:09:57.356Z,82.07
2023-01-03T03:11:18.603Z,81.91
2023-01-03T03:12:41.809Z,81.75
2023-01-03T03:13:47.903Z,82.08
2023-01-03T03:14:53.440Z,81.85
2023-01-03T03:16:02.520Z,82.02
2023-01-03T03:17:09.278Z,81.79
2023-01-03T03:18:17.215Z,82.06
2023-01-03T03:19:45.695Z,81.99
2023-01-03T03:21:06.337Z,81.81
2023-01-03T03:22:32.892Z,81.91
2023-01-03T03:23:56.635Z,81.88
2023-01-03T03:25:02.872Z,81.91
2023-01-03T03:26:09.856Z,81.98
2023-01-03T03:27:32.008Z,81.81
2023-01-03T03:28:41.866Z,81.74
2023-01-03T03:29:44.083Z,81.84
2023-01-03T03:30:52.103Z,81.92
2023-01-03T03:31:56.141Z,81.99
2023-01-03T03:33:05.820Z,82.19
2023-01-03T03:34:12.867Z,82.30
2023-01-03T03:35:17.785Z,82.22
2023-01-03T03:36:29.328Z,82.14
2023-01-03T03:37:36.537Z,82.32
2023-01-03T03:38:43.110Z,82.07
2023-01-03T03:40:05.222Z,82.37
2023-01-03T03:41:34.575Z,82.35
2023-01-03T03:43:02.423Z,82.21
2023-01-03T03:44:33.079Z,82.12
2023-01-03T03:45:40.779Z,82.17
2023-01-03T03:46:55.168Z,82.11
2023-01-03T03:48:07.237Z,82.35
2023-01-03T03:49:33.354Z,82.27
2023-01-03T03:50:41.392Z,82.25
2023-01-03T03:51:45.872Z,82.24
2023-01-03T03:52:53.094Z,82.33
2023-01-03T03:53:56.456Z,82.27
2023-01-03T03:55:04.740Z,82.58
2023-01-03T03:56:09.803Z,82.55
2023-01-03T03:57:18.827Z,82.50
2023-01-03T03:58:27.466Z,82.34
2023-01-03T03:59:33.329Z,82.71
2023-01-03T04:00:39.875Z,82.58
2023-01-03T04:01:44.324Z,82.66
2023-01-03T04:02:48.795Z,82.61
2023-01-03T04:03:56.032Z,82.49
2023-01-03T04:05:02.114Z,82.48
2023-01-03T04:06:10.429Z,82.53
2023-01-03T04:07:13.586Z,82.58
2023-01-03T04:08:15.673Z,82.49
2023-01-03T04:09:19.141Z,82.49
2023-01-03T04:10:23.622Z,82.45
2023-01-03T04:11:25.750Z,82.68
2023-01-03T04:12:28.757Z,82.53
2023-01-03T04:13:30.908Z,82.71
2023-01-03T04:14:34.244Z,82.73
2023-01-03T04:15:38.145Z,82.71
2023-01-03T04:16:41.062Z,82.74
2023-01-03T04:17:44.686Z,82.83
2023-01-03T04:18:46.798Z,82.66
2023-01-03T04:19:51.217Z,82.83
2023-01-03T04:20:53.569Z,82.63
2023-01-03T04:21:56.606Z,82.59
2023-01-03T04:22:58.729Z,82.70
2023-01-03T04:24:01.779Z,82.76
2023-01-03T04:25:04.518Z,82.63
2023-01-03T04:26:07.526Z,82.85
2023-01-03T04:27:09.584Z,82.83
2023-01-03T04:28:12.599Z,82.63
2023-01-03T04:29:14.824Z,82.86
2023-01-03T04:30:17.924Z,83.00
2023-01-03T04:31:19.988Z,82.98
2023-01-03T04:32:23.128Z,82.82
2023-01-03T04:33:25.188Z,82.81
2023-01-03T04:34:28.239Z,82.80
2023-01-03T04:35:31.763Z,83.09
2023-01-03T04:36:34.838Z,83.15
2023-01-03T04:37:36.896Z,82.88
2023-01-03T04:38:39.990Z,82.98
2023-01-03T04:39:43.016Z,82.96
2023-01-03T04:40:45.007Z,82.89
2023-01-03T04:41:48.044Z,82.99
2023-01-03T04:43:20.070Z,83.19
2023-01-03T04:44:22.920Z,83.25
2023-01-03T04:45:25.258Z,83.14
2023-01-03T04:46:28.955Z,83.12
2023-01-03T04:47:31.584Z,83.34
2023-01-03T04:48:34.587Z,83.35
2023-01-03T04:49:36.651Z,83.17
2023-01-03T04:50:41.089Z,83.10
2023-01-03T04:51:43.106Z,82.99
2023-01-03T04:52:46.139Z,83.29
2023-01-03T04:53:48.229Z,83.35
2023-01-03T04:54:51.276Z,83.15
2023-01-03T04:55:54.177Z,83.22
2023-01-03T04:56:57.237Z,83.04
2023-01-03T04:57:59.302Z,83.04
2023-01-03T04:59:02.585Z,82.91
2023-01-03T05:00:05.728Z,82.98
2023-01-03T05:01:10.047Z,83.03
2023-01-03T05:02:12.329Z,82.88
2023-01-03T05:03:15.641Z,83.02
2023-01-03T05:04:18.180Z,82.83
2023-01-03T05:05:21.255Z,82.78
2023-01-03T05:06:25.697Z,82.80
2023-01-03T05:07:27.931Z,82.63
2023-01-03T05:08:32.110Z,82.29
2023-01-03T05:09:34.114Z,82.68
2023-01-03T05:10:39.414Z,82.45
2023-01-03T05:11:41.413Z,82.48
2023-01-03T05:12:59.634Z,82.07
2023-01-03T05:14:02.765Z,82.24
2023-01-03T05:15:05.460Z,82.11
2023-01-03T05:16:10.633Z,82.10
2023-01-03T05:17:12.728Z,82.00
2023-01-03T05:18:16.007Z,82.00
2023-01-03T05:19:18.486Z,82.04
2023-01-03T05:20:39.360Z,82.02
2023-01-03T05:22:01.269Z,81.79
2023-01-03T05:23:21.946Z,81.85
2023-01-03T05:24:42.360Z,81.77
2023-01-03T05:25:51.074Z,81.82
2023-01-03T05:26:54.560Z,81.81
2023-01-03T05:27:57.824Z,81.69
2023-01-03T05:29:00.987Z,81.86
2023-01-03T05:30:03.279Z,81.81
2023-01-03T05:31:06.620Z,81.76
2023-01-03T05:32:09.692Z,81.81
2023-01-03T05:33:12.129Z,81.70
2023-01-03T05:34:15.430Z,81.69
2023-01-03T05:35:17.421Z,81.78
2023-01-03T05:36:20.456Z,81.66
2023-01-03T05:37:25.105Z,81.80
2023-01-03T05:38:27.186Z,81.68
2023-01-03T05:39:30.189Z,81.78
2023-01-03T05:40:37.652Z,82.02
2023-01-03T05:42:02.304Z,81.93
2023-01-03T05:43:05.460Z,82.04
2023-01-03T05:44:08.547Z,81.96
2023-01-03T05:45:10.989Z,82.19
2023-01-03T05:46:14.138Z,82.06
2023-01-03T05:47:16.251Z,82.35
2023-01-03T05:48:21.757Z,82.27
2023-01-03T05:49:23.937Z,82.28
2023-01-03T05:50:27.023Z,82.38
2023-01-03T05:51:29.389Z,82.52
2023-01-03T05:52:33.866Z,82.40
2023-01-03T05:53:35.882Z,82.65
2023-01-03T05:54:38.933Z,82.72
2023-01-03T05:55:40.930Z,82.71
2023-01-03T05:56:44.347Z,82.78
2023-01-03T05:57:47.358Z,82.78
2023-01-03T05:58:50.406Z,82.79
2023-01-03T05:59:52.555Z,82.56
2023-01-03T06:00:55.553Z,82.86
2023-01-03T06:01:57.769Z,82.86
2023-01-03T06:03:00.943Z,82.85
2023-01-03T06:04:03.184Z,82.83
2023-01-03T06:05:07.519Z,82.88
2023-01-03T06:06:09.862Z,82.84
2023-01-03T06:07:12.897Z,82.93
2023-01-03T06:08:16.285Z,82.91
2023-01-03T06:09:19.503Z,82.94
2023-01-03T06:10:21.563Z,82.97
2023-01-03T06:11:24.830Z,82.99
2023-01-03T06:12:27.091Z,82.77
2023-01-03T06:13:30.112Z,83.03
2023-01-03T06:14:32.169Z,83.12
2023-01-03T06:15:35.268Z,83.14
2023-01-03T06:16:56.087Z,83.12
2023-01-03T06:18:00.315Z,82.99
2023-01-03T06:19:03.630Z,82.86
2023-01-03T06:20:07.198Z,83.02
2023-01-03T06:21:09.200Z,83.09
2023-01-03T06:22:12.300Z,83.00
2023-01-03T06:23:15.980Z,82.78
2023-01-03T06:24:18.994Z,82.81
2023-01-03T06:25:21.551Z,82.67
2023-01-03T06:26:25.996Z,82.75
2023-01-03T06:27:28.089Z,82.58
2023-01-03T06:28:31.149Z,82.66
2023-01-03T06:29:33.239Z,82.76
2023-01-03T06:30:36.283Z,82.83
2023-01-03T06:31:38.352Z,82.56
2023-01-03T06:32:41.378Z,82.68
2023-01-03T06:33:43.861Z,82.46
2023-01-03T06:34:46.914Z,82.65
2023-01-03T06:35:48.926Z,82.51
2023-01-03T06:36:51.908Z,82.50
2023-01-03T06:37:53.961Z,82.35
2023-01-03T06:38:59.494Z,82.40
2023-01-03T06:40:01.554Z,82.30
2023-01-03T06:41:04.938Z,82.26
2023-01-03T06:42:21.847Z,82.53
2023-01-03T06:43:25.011Z,82.35
2023-01-03T06:44:27.073Z,82.48
2023-01-03T06:46:02.386Z,82.22
2023-01-03T06:47:25.436Z,82.37
2023-01-03T06:48:46.729Z,82.10
2023-01-03T06:50:07.655Z,82.43
2023-01-03T06:51:29.506Z,82.27
2023-01-03T06:52:50.720Z,82.17
2023-01-03T06:53:53.929Z,82.11
2023-01-03T06:54:57.527Z,82.12
2023-01-03T06:56:00.646Z,82.09
2023-01-03T06:57:03.709Z,82.07
2023-01-03T06:58:05.764Z,81.96
2023-01-03T06:59:08.837Z,82.12
2023-01-03T07:00:12.173Z,81.96
2023-01-03T07:01:16.285Z,81.96
2023-01-03T07:02:18.583Z,81.90
2023-01-03T07:03:22.572Z,82.01
2023-01-03T07:04:26.756Z,81.82
2023-01-03T07:05:28.903Z,81.87
2023-01-03T07:06:31.926Z,81.87
2023-01-03T07:07:34.026Z,81.82
2023-01-03T07:08:38.476Z,81.71
2023-01-03T07:09:44.384Z,81.78
2023-01-03T07:10:47.793Z,81.74
2023-01-03T07:11:50.809Z,81.55
2023-01-03T07:13:11.505Z,81.45
2023-01-03T07:14:13.677Z,81.42
2023-01-03T07:15:15.712Z,81.35
2023-01-03T07:16:20.212Z,81.37
2023-01-03T07:17:22.249Z,81.50
2023-01-03T07:18:26.252Z,81.27
2023-01-03T07:19:29.346Z,81.33
2023-01-03T07:20:31.386Z,81.25
2023-01-03T07:21:35.634Z,81.26
2023-01-03T07:22:37.631Z,81.05
2023-01-03T07:23:40.693Z,80.99
2023-01-03T07:24:42.697Z,81.19
2023-01-03T07:25:45.693Z,80.97
2023-01-03T07:26:50.068Z,81.20
2023-01-03T07:28:00.434Z,81.12
2023-01-03T07:29:10.563Z,80.97
2023-01-03T07:30:13.432Z,81.06
2023-01-03T07:31:16.438Z,81.02
2023-01-03T07:32:18.563Z,80.84
2023-01-03T07:33:21.577Z,80.71
2023-01-03T07:34:24.589Z,80.68
2023-01-03T07:35:26.587Z,80.63
2023-01-03T07:36:30.068Z,80.47
2023-01-03T07:37:32.127Z,80.45
2023-01-03T07:38:35.503Z,80.50
2023-01-03T07:39:37.536Z,80.47
2023-01-03T07:40:40.729Z,80.36
2023-01-03T07:42:01.090Z,79.81
2023-01-03T07:43:22.872Z,79.92
2023-01-03T07:44:25.891Z,79.76
2023-01-03T07:45:27.951Z,79.63
2023-01-03T07:46:32.263Z,79.62
2023-01-03T07:47:34.380Z,79.74
2023-01-03T07:48:38.048Z,79.63
2023-01-03T07:49:41.062Z,79.44
2023-01-03T07:50:43.123Z,79.30
2023-01-03T07:51:46.145Z,79.33
2023-01-03T07:52:48.284Z,79.34
2023-01-03T07:53:52.282Z,79.28
2023-01-03T07:54:54.334Z,79.30
2023-01-03T07:56:07.746Z,79.25
2023-01-03T07:57:15.499Z,79.40
2023-01-03T07:58:18.951Z,79.13
2023-01-03T07:59:21.991Z,79.27
2023-01-03T08:00:24.056Z,79.43
2023-01-03T08:01:27.477Z,79.26
2023-01-03T08:02:29.693Z,79.15
2023-01-03T08:03:33.091Z,79.09
2023-01-03T08:04:36.177Z,79.10
2023-01-03T08:05:38.335Z,79.34
2023-01-03T08:06:42.166Z,79.05
2023-01-03T08:07:44.208Z,79.10
2023-01-03T08:09:08.822Z,79.29
2023-01-03T08:10:29.592Z,79.17
2023-01-03T08:11:50.324Z,79.20
2023-01-03T08:13:11.115Z,79.33
2023-01-03T08:14:19.208Z,79.38
2023-01-03T08:15:24.673Z,79.40
2023-01-03T08:16:27.766Z,79.27
2023-01-03T08:17:29.851Z,79.35
2023-01-03T08:18:32.856Z,79.40
2023-01-03T08:19:37.803Z,79.32
2023-01-03T08:20:44.873Z,79.30
2023-01-03T08:21:47.902Z,79.48
2023-01-03T08:22:49.985Z,79.66
2023-01-03T08:23:52.983Z,79.61
2023-01-03T08:24:55.022Z,79.55
2023-01-03T08:26:01.381Z,79.68
2023-01-03T08:27:05.098Z,79.69
2023-01-03T08:28:08.170Z,79.75
2023-01-03T08:29:11.233Z,79.97
2023-01-03T08:30:14.758Z,80.12
2023-01-03T08:31:20.655Z,79.93
2023-01-03T08:32:22.901Z,80.09
2023-01-03T08:33:27.640Z,80.09
2023-01-03T08:34:36.376Z,80.25
2023-01-03T08:35:41.181Z,80.24
2023-01-03T08:36:48.261Z,80.25
2023-01-03T08:37:50.924Z,80.60
2023-01-03T08:38:58.855Z,80.50
2023-01-03T08:40:06.272Z,80.60
2023-01-03T08:41:10.271Z,80.74
2023-01-03T08:42:16.814Z,80.48
2023-01-03T08:43:20.051Z,80.51
2023-01-03T08:44:22.058Z,80.52
2023-01-03T08:45:28.111Z,80.55
2023-01-03T08:46:34.155Z,80.67
2023-01-03T08:47:37.299Z,80.76
2023-01-03T08:48:39.635Z,80.98
2023-01-03T08:49:43.693Z,80.82
2023-01-03T08:50:46.946Z,80.85
2023-01-03T08:51:49.086Z,81.19
2023-01-03T08:52:52.303Z,81.13
2023-01-03T08:53:54.340Z,81.11
2023-01-03T08:54:57.485Z,81.14
2023-01-03T08:56:01.293Z,81.19
2023-01-03T08:57:04.326Z,80.99
2023-01-03T08:58:08.902Z,81.05
2023-01-03T08:59:11.968Z,81.04
2023-01-03T09:00:15.172Z,80.98
2023-01-03T09:01:20.913Z,81.24
2023-01-03T09:02:23.312Z,80.97
2023-01-03T09:03:26.632Z,81.11
2023-01-03T09:04:28.770Z,81.11
2023-01-03T09:05:31.794Z,81.34
2023-01-03T09:06:35.181Z,81.14
2023-01-03T09:07:37.245Z,80.86
2023-01-03T09:08:40.314Z,81.09
2023-01-03T09:09:42.362Z,80.99
2023-01-03T09:10:47.959Z,80.83
2023-01-03T09:11:50.093Z,80.76
2023-01-03T09:12:53.234Z,80.71
2023-01-03T09:13:57.052Z,80.66
2023-01-03T09:14:59.021Z,80.61
2023-01-03T09:16:03.204Z,80.55
2023-01-03T09:17:07.638Z,80.61
2023-01-03T09:18:10.653Z,80.50
2023-01-03T09:19:12.636Z,80.34
2023-01-03T09:20:17.461Z,80.44
2023-01-03T09:21:20.508Z,80.32
2023-01-03T09:22:22.572Z,80.28
2023-01-03T09:23:25.621Z,80.17
2023-01-03T09:24:28.656Z,80.26
2023-01-03T09:25:36.842Z,79.96
2023-01-03T09:26:40.660Z,79.88
2023-01-03T09:27:47.543Z,80.20
2023-01-03T09:28:49.632Z,79.96
2023-01-03T09:29:53.267Z,79.61
2023-01-03T09:30:56.689Z,79.74
2023-01-03T09:32:01.271Z,79.72
2023-01-03T09:33:06.072Z,79.26
2023-01-03T09:34:08.140Z,79.38
2023-01-03T09:35:11.447Z,79.32
2023-01-03T09:36:13.667Z,79.33
2023-01-03T09:37:16.954Z,79.24
2023-01-03T09:38:19.227Z,79.12
2023-01-03T09:39:22.266Z,79.18
2023-01-03T09:40:25.413Z,79.18
2023-01-03T09:41:27.684Z,79.02
2023-01-03T09:42:48.650Z,79.01
2023-01-03T09:43:54.033Z,78.81
2023-01-03T09:44:56.063Z,78.61
2023-01-03T09:46:01.371Z,78.82
2023-01-03T09:47:05.580Z,78.55
2023-01-03T09:48:15.186Z,78.69
2023-01-03T09:49:18.236Z,78.46
2023-01-03T09:50:44.381Z,78.46
2023-01-03T09:52:05.213Z,78.32
2023-01-03T09:53:26.108Z,78.37
2023-01-03T09:54:48.301Z,78.41
2023-01-03T09:56:12.243Z,78.49
2023-01-03T09:57:36.044Z,78.30
2023-01-03T09:58:58.020Z,77.94
2023-01-03T10:00:33.319Z,78.23
2023-01-03T10:02:03.579Z,78.30
2023-01-03T10:03:50.190Z,78.07
2023-01-03T10:05:22.818Z,77.94
2023-01-03T10:06:35.595Z,77.85
2023-01-03T10:08:00.626Z,77.76
2023-01-03T10:09:16.309Z,77.50
2023-01-03T10:10:25.260Z,77.56
2023-01-03T10:11:39.556Z,77.54
2023-01-03T10:12:53.713Z,77.38
2023-01-03T10:14:13.653Z,76.92
2023-01-03T10:15:26.667Z,77.03
2023-01-03T10:16:41.706Z,77.17
2023-01-03T10:17:58.966Z,77.00
2023-01-03T10:19:25.934Z,77.13
2023-01-03T10:20:42.262Z,76.94
2023-01-03T10:21:53.244Z,76.84
2023-01-03T10:22:57.841Z,76.80
2023-01-03T10:24:01.412Z,76.93
2023-01-03T10:25:12.699Z,76.84
2023-01-03T10:26:15.696Z,76.74
2023-01-03T10:27:22.208Z,76.45
2023-01-03T10:28:29.118Z,76.65
2023-01-03T10:29:31.192Z,76.18
2023-01-03T10:30:46.481Z,76.61
2023-01-03T10:32:09.646Z,76.56
2023-01-03T10:33:29.505Z,76.29
2023-01-03T10:34:33.918Z,76.15
2023-01-03T10:35:37.504Z,76.37
2023-01-03T10:36:40.982Z,76.49
2023-01-03T10:37:44.631Z,76.31
2023-01-03T10:38:52.887Z,76.33
2023-01-03T10:40:03.617Z,76.21
2023-01-03T10:41:17.405Z,76.20
2023-01-03T10:42:20.751Z,76.22
2023-01-03T10:43:29.638Z,75.92
2023-01-03T10:44:34.272Z,75.95
2023-01-03T10:45:51.970Z,75.91
2023-01-03T10:46:57.394Z,75.21
2023-01-03T10:48:00.820Z,75.58
2023-01-03T10:49:27.848Z,75.33
2023-01-03T10:50:38.811Z,75.57
2023-01-03T10:51:49.097Z,75.32
2023-01-03T10:52:57.555Z,75.43
2023-01-03T10:54:02.615Z,75.25
2023-01-03T10:55:13.687Z,75.59
2023-01-03T10:56:18.205Z,74.99
2023-01-03T10:57:43.774Z,74.56
2023-01-03T10:58:46.185Z,74.44
2023-01-03T10:59:50.664Z,74.23
2023-01-03T11:00:54.669Z,74.23
2023-01-03T11:02:02.290Z,74.17
2023-01-03T11:03:16.268Z,73.92
2023-01-03T11:04:19.964Z,73.81
2023-01-03T11:05:24.128Z,73.85
2023-01-03T11:06:28.674Z,73.72
2023-01-03T11:07:30.823Z,73.63
2023-01-03T11:08:42.721Z,73.31
2023-01-03T11:09:51.867Z,73.13
2023-01-03T11:10:57.282Z,73.05
2023-01-03T11:12:15.233Z,72.80
2023-01-03T11:13:24.047Z,72.67
2023-01-03T11:14:29.368Z,72.49
2023-01-03T11:15:39.173Z,72.46
2023-01-03T11:16:42.690Z,72.16
2023-01-03T11:17:56.428Z,71.80
2023-01-03T11:19:01.555Z,72.18
2023-01-03T11:20:18.960Z,72.07
2023-01-03T11:21:29.658Z,72.24
2023-01-03T11:22:38.690Z,71.97
2023-01-03T11:24:04.338Z,72.02
2023-01-03T11:25:20.678Z,72.39
2023-01-03T11:26:33.686Z,72.21
2023-01-03T11:28:02.837Z,72.03
2023-01-03T11:29:30.486Z,71.75
2023-01-03T11:30:41.500Z,71.94
2023-01-03T11:31:53.551Z,71.34
2023-01-03T11:33:14.340Z,71.33
2023-01-03T11:35:20.975Z,70.85
2023-01-03T11:36:20.844Z,71.21
2023-01-03T11:37:31.964Z,70.80
2023-01-03T11:38:51.435Z,70.84
2023-01-03T11:40:08.995Z,70.32
2023-01-03T11:41:22.168Z,69.39
2023-01-03T11:42:37.370Z,69.42
2023-01-03T11:43:57.311Z,69.32
2023-01-03T11:45:34.039Z,69.17
2023-01-03T11:46:52.194Z,69.09
2023-01-03T11:48:07.410Z,69.11
2023-01-03T11:49:27.714Z,68.72
2023-01-03T11:50:42.327Z,68.04
2023-01-03T11:51:55.031Z,68.52
2023-01-03T11:53:03.099Z,67.73
2023-01-03T11:54:23.465Z,67.17
2023-01-03T11:55:50.368Z,67.72
2023-01-03T11:56:54.504Z,67.64
2023-01-03T11:58:14.068Z,67.33
2023-01-03T11:59:51.834Z,66.36
2023-01-03T12:01:02.176Z,66.67
2023-01-03T12:02:36.096Z,65.66
2023-01-03T12:04:01.084Z,63.63
2023-01-03T12:05:20.680Z,64.21
2023-01-03T12:06:32.147Z,63.16
2023-01-03T12:07:56.154Z,63.93
2023-01-03T12:09:14.216Z,62.85
2023-01-03T12:10:24.585Z,62.38
2023-01-03T12:11:48.735Z,63.17
2023-01-03T12:13:10.302Z,63.05
2023-01-03T12:14:20.656Z,62.76
2023-01-03T12:15:27.263Z,62.62
2023-01-03T12:16:33.873Z,62.50
2023-01-03T12:17:44.683Z,62.67
2023-01-03T12:18:50.914Z,61.66
2023-01-03T12:19:58.694Z,61.76
2023-01-03T12:21:07.741Z,62.25
2023-01-03T12:22:19.016Z,62.20
2023-01-03T12:23:40.706Z,62.38
2023-01-03T12:24:50.384Z,62.32
2023-01-03T12:25:57.306Z,62.33
2023-01-03T12:27:06.571Z,61.84
2023-01-03T12:28:17.814Z,62.05
2023-01-03T12:29:25.524Z,62.00
2023-01-03T12:30:37.463Z,61.90
2023-01-03T12:31:47.585Z,61.86
2023-01-03T12:32:55.117Z,61.78
2023-01-03T12:34:06.512Z,61.96
2023-01-03T12:35:20.054Z,61.96
2023-01-03T12:36:32.559Z,62.10
2023-01-03T12:37:38.990Z,62.27
2023-01-03T12:38:45.960Z,61.53
2023-01-03T12:39:55.509Z,61.72
2023-01-03T12:41:07.895Z,61.60
2023-01-03T12:42:23.150Z,61.56
2023-01-03T12:43:34.381Z,61.39
2023-01-03T12:44:40.430Z,61.59
2023-01-03T12:45:51.425Z,61.56
2023-01-03T12:46:57.381Z,61.55
2023-01-03T12:48:09.346Z,61.66
2023-01-03T12:49:17.944Z,61.58
2023-01-03T12:50:28.122Z,61.53
2023-01-03T12:51:31.363Z,60.57
2023-01-03T12:52:37.324Z,61.13
2023-01-03T12:53:47.310Z,60.99
2023-01-03T12:54:57.049Z,60.93
2023-01-03T12:56:29.960Z,61.06
2023-01-03T12:57:57.162Z,61.35
2023-01-03T12:59:10.325Z,61.48
2023-01-03T13:00:23.912Z,61.34
2023-01-03T13:01:31.519Z,61.36
2023-01-03T13:02:45.288Z,61.42
2023-01-03T13:03:54.509Z,61.36
2023-01-03T13:05:14.093Z,61.23
2023-01-03T13:06:21.834Z,60.82
2023-01-03T13:07:29.993Z,60.89
2023-01-03T13:08:40.183Z,60.47
2023-01-03T13:09:47.422Z,60.43
2023-01-03T13:10:58.102Z,60.37
2023-01-03T13:12:08.583Z,60.39
2023-01-03T13:13:17.116Z,60.51
2023-01-03T13:14:22.433Z,60.51
2023-01-03T13:15:35.813Z,60.48
2023-01-03T13:16:45.088Z,60.60
2023-01-03T13:17:50.188Z,60.79
2023-01-03T13:18:53.311Z,60.76
2023-01-03T13:19:58.714Z,60.92
2023-01-03T13:21:02.208Z,61.00
2023-01-03T13:22:19.243Z,61.12
2023-01-03T13:23:35.131Z,61.19
2023-01-03T13:24:41.746Z,61.07
2023-01-03T13:25:44.948Z,61.16
2023-01-03T13:27:20.496Z,61.00
2023-01-03T13:28:38.115Z,60.58
2023-01-03T13:29:46.199Z,60.26
2023-01-03T13:30:49.779Z,60.20
2023-01-03T13:32:05.024Z,59.99
2023-01-03T13:33:19.222Z,59.71
2023-01-03T13:34:34.933Z,59.68
2023-01-03T13:35:52.894Z,59.46
2023-01-03T13:37:20.361Z,59.46
2023-01-03T13:38:29.400Z,59.71
2023-01-03T13:39:38.556Z,60.17
2023-01-03T13:41:16.564Z,60.33
2023-01-03T13:42:22.022Z,60.42
2023-01-03T13:43:36.070Z,60.75
2023-01-03T13:44:43.903Z,61.01
2023-01-03T13:45:57.530Z,61.17
2023-01-03T13:47:00.737Z,61.33
2023-01-03T13:48:18.867Z,61.64
2023-01-03T13:49:24.651Z,61.92
2023-01-03T13:50:29.908Z,61.98
2023-01-03T13:51:49.168Z,62.11
2023-01-03T13:52:58.909Z,62.35
2023-01-03T13:54:05.720Z,62.63
2023-01-03T13:55:35.140Z,62.57
2023-01-03T13:57:06.858Z,62.73
2023-01-03T13:58:31.361Z,63.06
2023-01-03T13:59:42.514Z,63.32
2023-01-03T14:00:48.108Z,63.22
2023-01-03T14:02:13.207Z,63.60
2023-01-03T14:03:38.721Z,63.94
2023-01-03T14:05:12.903Z,64.24
2023-01-03T14:07:01.714Z,64.41
2023-01-03T14:08:31.794Z,64.71
2023-01-03T14:10:07.591Z,64.68
2023-01-03T14:11:38.575Z,64.89
2023-01-03T14:13:10.180Z,65.32
2023-01-03T14:14:15.879Z,65.26
2023-01-03T14:15:25.964Z,65.45
2023-01-03T14:16:43.226Z,65.86
2023-01-03T14:17:49.400Z,65.83
2023-01-03T14:19:02.910Z,66.12
2023-01-03T14:20:09.680Z,66.28
2023-01-03T14:21:25.434Z,66.53
2023-01-03T14:22:38.060Z,66.79
2023-01-03T14:24:01.132Z,67.01
2023-01-03T14:25:07.691Z,67.24
2023-01-03T14:26:15.175Z,67.19
2023-01-03T14:27:20.525Z,67.48
2023-01-03T14:28:25.887Z,67.47
2023-01-03T14:29:29.844Z,67.56
2023-01-03T14:30:34.304Z,67.87
2023-01-03T14:31:47.275Z,67.82
2023-01-03T14:32:49.812Z,68.11
2023-01-03T14:33:57.323Z,68.15
2023-01-03T14:35:00.430Z,68.36
2023-01-03T14:36:05.372Z,68.30
2023-01-03T14:37:14.816Z,68.52
2023-01-03T14:38:23.432Z,68.47
2023-01-03T14:40:34.957Z,68.66
2023-01-03T14:41:39.756Z,68.74
2023-01-03T14:42:46.160Z,68.63